Campanya Meteocatpedra
Centenari de l'SMC: 100 anys mirant el cel

Dades de l'estació automàtica Sant Martí de Riucorb

?
?

Resum diari

22:00 TU
Dades diàries de l'estació meteorològica
Temperatura mitjana 17.4 °C
Temperatura màxima 23.9 °C 14:44 TU
Temperatura mínima 12.8 °C 4:10 TU
Humitat relativa mitjana 57%
Precipitació acumulada 0.0 mm
Ratxa màxima del vent (2 m) 29.5 km/h - 250º 15:39 TU
Irradiació solar global 17.8 MJ/m2

El tram horari està expressat en Temps Universal (TU). Cal sumar una hora en horari d'hivern i dues en horari d'estiu per passar a l'hora oficial.

Sant Martí de Riucorb

Metadades estació meteorològica
Municipi Sant Martí de Riucorb
Comarca Urgell
Altitud 413 m
Data alta 05.02.2002
Estat actual Operativa
Dades de període
Període
TU
TM
°C
TX
°C
TN
°C
HRM
%
PPT
mm
VVM (2 m)
km/h
DVM (2 m)
graus
VVX (2 m)
km/h
RS
W/m2
00:00 - 00:30 15.0 15.4 14.7 71 0.0 2.2 181 4.3 0
00:30 - 01:00 14.6 14.7 14.5 73 0.0 2.2 174 9.4 0
01:00 - 01:30 14.6 14.8 14.4 73 0.0 2.5 174 5.4 0
01:30 - 02:00 14.1 14.4 13.8 75 0.0 2.2 172 3.6 0
02:00 - 02:30 13.4 14.0 12.9 78 0.0 1.8 179 4.7 0
02:30 - 03:00 13.0 13.1 12.8 79 0.0 1.8 193 6.8 0
03:00 - 03:30 12.9 13.0 12.8 79 0.0 1.8 179 4.3 0
03:30 - 04:00 13.1 13.3 12.9 78 0.0 2.2 211 5.4 0
04:00 - 04:30 13.0 13.3 12.8 78 0.0 2.9 232 10.4 0
04:30 - 05:00 13.2 13.4 13.0 77 0.0 4.7 237 9.4 0
05:00 - 05:30 13.3 13.4 13.2 77 0.0 4.3 231 9.4 0
05:30 - 06:00 13.3 13.3 13.2 77 0.0 5.4 234 10.1 4
06:00 - 06:30 13.3 13.5 13.2 77 0.0 4.7 236 9.7 24
06:30 - 07:00 13.6 13.9 13.4 76 0.0 5.4 239 10.8 41
07:00 - 07:30 14.5 15.0 14.0 73 0.0 7.2 238 15.1 164
07:30 - 08:00 15.6 16.0 15.1 69 0.0 8.3 242 17.3 265
08:00 - 08:30 16.1 16.8 15.5 67 0.0 9.7 249 19.4 356
08:30 - 09:00 17.4 17.8 16.8 63 0.0 10.4 260 21.6 439
09:00 - 09:30 17.6 18.2 17.1 63 0.0 11.5 267 23.0 499
09:30 - 10:00 18.7 19.4 18.1 60 0.0 11.2 265 23.0 649
10:00 - 10:30 18.9 19.4 18.5 58 0.0 11.2 269 23.8 573
10:30 - 11:00 19.3 20.2 18.6 57 0.0 10.4 270 20.9 717
11:00 - 11:30 19.6 20.2 19.2 56 0.0 11.2 270 22.3 467
11:30 - 12:00 20.0 21.0 19.5 54 0.0 10.8 276 23.0 498
12:00 - 12:30 21.7 22.4 20.7 47 0.0 11.9 267 25.6 765
12:30 - 13:00 22.3 23.0 21.8 45 0.0 13.3 285 27.0 716
13:00 - 13:30 22.0 23.0 21.5 45 0.0 11.5 273 24.1 562
13:30 - 14:00 23.2 23.6 22.9 39 0.0 11.9 269 24.1 690
14:00 - 14:30 23.5 23.7 23.1 34 0.0 13.0 267 28.1 626
14:30 - 15:00 23.4 23.9 23.2 30 0.0 13.7 271 27.4 555
15:00 - 15:30 23.3 23.6 23.2 29 0.0 14.8 269 26.6 468
15:30 - 16:00 23.1 23.2 22.7 28 0.0 13.7 267 29.5 379
16:00 - 16:30 22.3 22.7 21.8 31 0.0 13.0 269 26.6 223
16:30 - 17:00 22.0 22.3 21.6 34 0.0 12.6 267 29.5 192
17:00 - 17:30 20.8 21.5 20.2 37 0.0 11.9 264 25.2 45
17:30 - 18:00 19.7 20.1 19.1 43 0.0 6.1 254 18.7 13
18:00 - 18:30 18.7 19.0 18.5 44 0.0 6.5 262 20.5 0
18:30 - 19:00 17.9 18.6 17.4 43 0.0 5.4 252 14.4 0
19:00 - 19:30 16.9 17.3 16.5 46 0.0 4.7 254 13.7 0
19:30 - 20:00 16.6 17.2 16.2 47 0.0 3.6 210 9.4 0
20:00 - 20:30 16.2 16.5 16.0 50 0.0 3.6 212 11.5 0
20:30 - 21:00 16.0 16.5 15.7 52 0.0 3.2 225 7.9 0
21:00 - 21:30 15.3 15.7 15.1 54 0.0 3.2 220 10.8 0
21:30 - 22:00 14.9 15.2 14.6 56 0.0 3.2 179 9.7 0
22:00 - 22:30 14.3 14.7 14.1 58 0.0 1.8 183 6.5 0

Les dades en taronja només han passat un control de qualitat automàtic. Resta pendent la seva validació definitiva.